createdAt,value
2023-05-23T00:02:08.468Z,22.30
2023-05-23T00:07:11.013Z,22.30
2023-05-23T00:12:13.318Z,22.30
2023-05-23T00:17:17.880Z,22.50
2023-05-23T00:22:20.264Z,22.40
2023-05-23T00:27:22.428Z,22.50
2023-05-23T00:32:24.603Z,22.30
2023-05-23T00:37:28.476Z,22.30
2023-05-23T00:42:32.864Z,21.70
2023-05-23T00:47:35.327Z,22.10
2023-05-23T00:52:44.554Z,22.30
2023-05-23T00:57:47.498Z,22.40
2023-05-23T01:02:53.870Z,22.50
2023-05-23T01:07:56.351Z,22.50
2023-05-23T01:13:38.592Z,22.60
2023-05-23T01:18:51.424Z,22.60
2023-05-23T01:24:05.334Z,22.50
2023-05-23T01:29:45.241Z,22.40
2023-05-23T01:34:49.112Z,22.50
2023-05-23T01:39:51.246Z,22.40
2023-05-23T01:44:53.625Z,22.50
2023-05-23T01:49:59.637Z,22.50
2023-05-23T01:55:09.997Z,22.40
2023-05-23T02:00:15.164Z,22.50
2023-05-23T02:05:17.634Z,22.30
2023-05-23T02:10:21.250Z,22.30
2023-05-23T02:15:23.504Z,22.30
2023-05-23T02:20:26.255Z,22.30
2023-05-23T02:25:28.404Z,22.30
2023-05-23T02:30:30.578Z,22.30
2023-05-23T02:35:33.180Z,22.30
2023-05-23T02:40:35.445Z,22.30
2023-05-23T02:45:37.767Z,22.20
2023-05-23T02:50:40.575Z,22.30
2023-05-23T02:55:43.302Z,22.30
2023-05-23T03:00:45.773Z,22.20
2023-05-23T03:05:48.969Z,22.20
2023-05-23T03:10:51.627Z,22.20
2023-05-23T03:15:53.741Z,22.20
2023-05-23T03:20:56.089Z,22.20
2023-05-23T03:26:00.041Z,22.10
2023-05-23T03:31:02.965Z,22.20
2023-05-23T03:36:05.275Z,22.30
2023-05-23T03:41:07.587Z,22.20
2023-05-23T03:46:10.084Z,22.10
2023-05-23T03:51:13.678Z,22.10
2023-05-23T03:56:17.086Z,22.10
2023-05-23T04:01:19.376Z,22.10
2023-05-23T04:06:23.361Z,22.20
2023-05-23T04:11:25.866Z,22.10
2023-05-23T04:16:28.678Z,22.10
2023-05-23T04:21:31.865Z,22.10
2023-05-23T04:26:43.938Z,22.10
2023-05-23T04:31:46.551Z,22.10
2023-05-23T04:36:49.950Z,22.10
2023-05-23T04:41:52.438Z,22.10
2023-05-23T04:47:03.253Z,22.10
2023-05-23T04:52:23.940Z,22.10
2023-05-23T04:57:27.091Z,22.10
2023-05-23T05:02:35.442Z,22.00
2023-05-23T05:07:38.197Z,22.10
2023-05-23T05:12:41.679Z,22.10
2023-05-23T05:17:46.461Z,22.10
2023-05-23T05:22:58.099Z,22.20
2023-05-23T05:28:09.084Z,22.10
2023-05-23T05:33:16.309Z,22.20
2023-05-23T05:38:19.105Z,22.10
2023-05-23T05:43:22.732Z,22.10
2023-05-23T05:48:25.120Z,22.10
2023-05-23T05:53:30.113Z,22.20
2023-05-23T05:58:32.427Z,22.20
2023-05-23T06:03:41.641Z,22.30
2023-05-23T06:08:44.653Z,22.30
2023-05-23T06:13:51.091Z,22.30
2023-05-23T06:18:54.222Z,22.30
2023-05-23T06:23:58.220Z,22.40
2023-05-23T06:29:00.745Z,22.50
2023-05-23T06:34:03.197Z,22.50
2023-05-23T06:39:05.395Z,22.50
2023-05-23T06:44:10.896Z,22.50
2023-05-23T06:49:17.031Z,22.50
2023-05-23T06:54:21.099Z,22.40
2023-05-23T06:59:23.408Z,22.30
2023-05-23T07:04:25.992Z,22.30
2023-05-23T07:09:28.920Z,22.20
2023-05-23T07:14:42.415Z,22.10
2023-05-23T07:19:46.733Z,22.00
2023-05-23T07:24:49.912Z,22.00
2023-05-23T07:29:53.115Z,22.00
2023-05-23T07:34:55.880Z,22.00
2023-05-23T07:39:58.161Z,22.00
2023-05-23T07:45:01.409Z,22.00
2023-05-23T07:50:05.793Z,22.00
2023-05-23T07:55:08.837Z,21.90
2023-05-23T08:00:12.585Z,21.90
2023-05-23T08:05:19.590Z,22.00
2023-05-23T08:10:28.518Z,22.10
2023-05-23T08:15:37.729Z,22.20
2023-05-23T08:20:49.414Z,22.20
2023-05-23T08:25:53.139Z,22.10
2023-05-23T08:30:57.374Z,22.00
2023-05-23T08:36:01.197Z,22.00
2023-05-23T08:41:07.263Z,21.80
2023-05-23T08:46:10.155Z,21.80
2023-05-23T08:51:16.025Z,21.80
2023-05-23T08:56:19.448Z,21.80
2023-05-23T09:01:25.138Z,21.80
2023-05-23T09:06:32.538Z,21.80
2023-05-23T09:11:36.391Z,21.80
2023-05-23T09:16:41.955Z,21.90
2023-05-23T09:21:49.530Z,21.90
2023-05-23T09:26:59.576Z,21.90
2023-05-23T09:32:22.177Z,21.90
2023-05-23T09:37:37.877Z,21.90
2023-05-23T09:42:48.572Z,21.90
2023-05-23T09:47:53.920Z,21.90
2023-05-23T09:52:56.200Z,22.10
2023-05-23T09:58:04.123Z,22.20
2023-05-23T10:03:14.580Z,22.20
2023-05-23T10:08:50.520Z,22.20
2023-05-23T10:13:53.629Z,22.40
2023-05-23T10:19:07.127Z,22.50
2023-05-23T10:24:09.719Z,22.80
2023-05-23T10:29:11.919Z,23.60
2023-05-23T10:34:52.392Z,23.80
2023-05-23T10:40:00.748Z,24.00
2023-05-23T10:45:20.818Z,23.80
2023-05-23T10:50:42.104Z,23.30
2023-05-23T10:55:49.922Z,23.20
2023-05-23T11:01:05.557Z,23.10
2023-05-23T11:06:08.187Z,23.10
2023-05-23T11:11:10.424Z,23.00
2023-05-23T11:16:29.322Z,23.10
2023-05-23T11:21:32.277Z,23.00
2023-05-23T11:26:34.448Z,23.00
2023-05-23T11:31:40.778Z,23.00
2023-05-23T11:36:43.178Z,23.60
2023-05-23T11:41:45.799Z,23.70
2023-05-23T11:47:06.967Z,23.30
2023-05-23T11:52:09.389Z,23.00
2023-05-23T11:57:14.390Z,23.40
2023-05-23T12:02:16.631Z,23.40
2023-05-23T12:07:23.161Z,23.50
2023-05-23T12:12:25.428Z,23.70
2023-05-23T12:17:27.812Z,23.40
2023-05-23T12:22:29.990Z,23.30
2023-05-23T12:27:37.451Z,24.40
2023-05-23T12:32:45.121Z,26.40
2023-05-23T12:37:47.678Z,26.60
2023-05-23T12:42:58.839Z,25.80
2023-05-23T12:48:02.460Z,25.30
2023-05-23T12:53:04.707Z,25.70
2023-05-23T12:58:06.979Z,25.70
2023-05-23T13:03:09.761Z,26.30
2023-05-23T13:08:12.553Z,27.30
2023-05-23T13:13:15.381Z,27.80
2023-05-23T13:18:18.145Z,27.80
2023-05-23T13:23:21.056Z,27.60
2023-05-23T13:28:23.180Z,26.60
2023-05-23T13:33:25.964Z,25.90
2023-05-23T13:38:31.030Z,25.00
2023-05-23T13:43:33.252Z,24.50
2023-05-23T13:48:35.598Z,24.30
2023-05-23T13:53:37.796Z,24.30
2023-05-23T13:58:40.077Z,24.30
2023-05-23T14:03:42.202Z,24.40
2023-05-23T14:08:44.375Z,24.20
2023-05-23T14:13:46.594Z,24.20
2023-05-23T14:18:49.156Z,24.20
2023-05-23T14:23:51.715Z,24.20
2023-05-23T14:28:54.021Z,24.30
2023-05-23T14:33:57.361Z,25.30
2023-05-23T14:39:01.421Z,25.40
2023-05-23T14:44:04.625Z,25.40
2023-05-23T14:49:06.848Z,25.90
2023-05-23T14:54:09.735Z,25.60
2023-05-23T14:59:11.940Z,24.90
2023-05-23T15:04:14.529Z,24.60
2023-05-23T15:09:18.351Z,24.50
2023-05-23T15:14:22.171Z,24.40
2023-05-23T15:19:24.520Z,24.20
2023-05-23T15:24:28.448Z,24.30
2023-05-23T15:29:33.207Z,24.50
2023-05-23T15:34:36.316Z,24.60
2023-05-23T15:39:38.492Z,24.50
2023-05-23T15:44:40.937Z,24.30
2023-05-23T15:49:43.179Z,24.30
2023-05-23T15:54:45.404Z,24.30
2023-05-23T15:59:47.738Z,24.20
2023-05-23T16:04:50.287Z,23.90
2023-05-23T16:09:52.463Z,23.80
2023-05-23T16:14:54.691Z,23.80
2023-05-23T16:19:56.873Z,23.60
2023-05-23T16:24:59.157Z,23.40
2023-05-23T16:30:01.603Z,23.40
2023-05-23T16:35:04.147Z,23.40
2023-05-23T16:40:07.390Z,23.30
2023-05-23T16:45:09.994Z,23.40
2023-05-23T16:50:12.677Z,23.20
2023-05-23T16:55:14.891Z,23.10
2023-05-23T17:00:17.673Z,23.00
2023-05-23T17:05:20.422Z,23.00
2023-05-23T17:10:22.934Z,23.00
2023-05-23T17:15:25.263Z,22.80
2023-05-23T17:20:27.630Z,22.80
2023-05-23T17:25:29.858Z,22.80
2023-05-23T17:30:32.121Z,22.70
2023-05-23T17:35:34.562Z,22.80
2023-05-23T17:40:36.792Z,22.70
2023-05-23T17:45:39.089Z,22.70
2023-05-23T17:50:42.070Z,22.70
2023-05-23T17:55:44.580Z,22.60
2023-05-23T18:00:47.132Z,22.70
2023-05-23T18:05:49.526Z,22.70
2023-05-23T18:10:51.822Z,22.60
2023-05-23T18:15:53.953Z,22.70
2023-05-23T18:20:56.464Z,22.50
2023-05-23T18:25:58.754Z,22.60
2023-05-23T18:31:01.951Z,22.50
2023-05-23T18:36:04.638Z,22.50
2023-05-23T18:41:06.965Z,22.40
2023-05-23T18:46:10.213Z,22.40
2023-05-23T18:51:12.583Z,22.40
2023-05-23T18:56:16.300Z,22.40
2023-05-23T19:01:19.026Z,22.40
2023-05-23T19:06:21.573Z,22.40
2023-05-23T19:11:24.482Z,22.30
2023-05-23T19:16:26.689Z,22.30
2023-05-23T19:21:28.980Z,22.20
2023-05-23T19:26:31.518Z,22.10
2023-05-23T19:31:34.135Z,22.10
2023-05-23T19:36:36.751Z,22.20
2023-05-23T19:41:40.400Z,22.20
2023-05-23T19:46:42.568Z,22.10
2023-05-23T19:51:45.152Z,22.00
2023-05-23T19:56:47.716Z,22.10
2023-05-23T20:01:50.476Z,22.10
2023-05-23T20:06:52.998Z,22.00
2023-05-23T20:11:55.190Z,21.90
2023-05-23T20:16:57.534Z,21.80
2023-05-23T20:21:59.698Z,21.80
2023-05-23T20:27:01.960Z,21.70
2023-05-23T20:32:04.563Z,21.70
2023-05-23T20:37:06.826Z,21.70
2023-05-23T20:42:10.596Z,21.60
2023-05-23T20:47:13.645Z,21.60
2023-05-23T20:52:15.971Z,21.60
2023-05-23T20:57:18.365Z,21.70
2023-05-23T21:02:20.887Z,21.60
2023-05-23T21:07:23.103Z,21.60
2023-05-23T21:12:25.344Z,21.70
2023-05-23T21:17:27.676Z,21.50
2023-05-23T21:22:29.808Z,21.40
2023-05-23T21:27:32.011Z,21.40
2023-05-23T21:32:34.241Z,21.30
2023-05-23T21:37:38.959Z,21.20
2023-05-23T21:42:41.194Z,21.10
2023-05-23T21:47:43.379Z,21.30
2023-05-23T21:52:45.706Z,21.10
2023-05-23T21:57:47.844Z,21.10
2023-05-23T22:02:50.475Z,21.00
2023-05-23T22:07:52.860Z,21.00
2023-05-23T22:12:55.043Z,21.00
2023-05-23T22:17:57.560Z,20.90
2023-05-23T22:23:02.326Z,20.90
2023-05-23T22:28:04.717Z,20.80
2023-05-23T22:33:13.194Z,20.80
2023-05-23T22:38:15.719Z,20.80
2023-05-23T22:43:18.417Z,20.80
2023-05-23T22:48:20.949Z,20.60
2023-05-23T22:53:23.105Z,20.50
2023-05-23T22:58:28.153Z,20.20
2023-05-23T23:03:30.444Z,20.20
2023-05-23T23:08:32.926Z,20.30
2023-05-23T23:13:35.114Z,20.50
2023-05-23T23:18:37.460Z,20.50
2023-05-23T23:23:39.664Z,20.50
2023-05-23T23:28:41.806Z,20.50
2023-05-23T23:33:43.989Z,20.50
2023-05-23T23:38:46.287Z,20.40
2023-05-23T23:43:48.693Z,20.50
2023-05-23T23:48:51.032Z,20.50
2023-05-23T23:53:53.565Z,20.40
2023-05-23T23:58:55.805Z,20.30
